Updated18/10/2017 22:55 
 

GeoURL
free counters
Scottish Weather Network UK Weather Network Cumulus Top Weather Sites

Peebles Weather - Nearby METAR Reports

Raw Data, Raw Data Expanded

Ignore low humidity and Dew Point values. Something wrong with the sensor.
Daytime temperatures are in direct sunlight so may be higher than official air temperature values.

Warnings and solar data not updating. Currently under investigation. (27th Oct 2016)

2017/10/18 21:20 EGPH 182120Z 06008KT 9999 FEW012 BKN021 10/09 Q1009
10.0°C 0.0 mm 1.2 mm 2.1 mm 2.6 mph 4.5 mph 1005.4 hPa 37% X-Ray Solar Flare Level
Planetary K-Index
Planetary K-Index History
Station Warn Rain Snow Flood Wind Ltng Heat Cold Glob Moon Temp Rain 1h Rain Wed Rain 24h Wind 10m Gust Pressure Hum Proton Levels

0.715 m New moon Cool F1-SSE F:73 A:5 Kp:0 SSN:0

METAR Reports

 

EGPH - Edinburgh Airpor, United Kingdom
Distance from station: NNW 22mi, 36km
Updated: 18/10/2017 22:20
Mostly cloudy
Mostly cloudy
 Wind from ENE
Wind: ENE 9 mph , 15 km/h
Temperature: 10°C
Wind Chill: 8°C
Dew Point: 9°C
Humidity: 94%
Barometer: 1009 hPa
Clouds: Mostly cloudy
Visibility: 6 miles , 10 km
Cloud details: Few Clouds 366 m
Mostly cloudy 640 m
2017/10/18 21:20 EGPH 182120Z 06008KT 9999 FEW012 BKN021 10/09 Q1009
EGOM - Spadeadam, United Kingdom
Distance from station: SSE 49mi, 79km
Updated: 18/10/2017 21:50
Mist, Mostly cloudy
Mist, Mostly cloudy
 Wind from ESE
Wind: ESE 12 mph , 19 km/h
Temperature: 9°C
Wind Chill: 6°C
Dew Point: 9°C
Humidity: 100%
Barometer: 1008 hPa
Summary: Mist
Clouds: Mostly cloudy
Visibility: 4 miles , 6 km
Cloud details: Few Clouds 122 m
Mostly cloudy 549 m
2017/10/18 20:50 EGOM 182050Z AUTO 11010KT 6000 BR FEW004/// BKN018/// 09/09 Q1008
 
EGNC - Carlisle, United Kingdom
Distance from station: SSE 51mi, 82km
Updated: 18/10/2017 17:50
NOT Current
Partly cloudy
Partly cloudy
 Wind from E
Wind: E 8 mph , 13 km/h
Temperature: 11°C
Dew Point: 8°C
Humidity: 82%
Barometer: 1010 hPa
Clouds: Partly cloudy
Visibility: 6 miles , 10 km
Cloud details: Few Clouds 549 m
Partly cloudy 792 m
2017/10/18 16:50 EGNC 181650Z 09007KT 9999 FEW018 SCT026 11/08 Q1010
EGPF - Glasgow Airport, United Kingdom
Distance from station: WNW 51mi, 82km
Updated: 18/10/2017 22:50
Overcast
Overcast
 Wind from ENE
Wind: ENE 10 mph , 17 km/h
Temperature: 10°C
Wind Chill: 8°C
Dew Point: 8°C
Humidity: 88%
Barometer: 1007 hPa
Clouds: Overcast
Visibility: 6 miles , 10 km
Cloud details: Overcast 762 m
2017/10/18 21:50 EGPF 182150Z AUTO 07009KT 9999 OVC025 10/08 Q1007
 
EGQL - Leuchars Raf, United Kingdom
Distance from station: NNE 53mi, 85km
Updated: 18/10/2017 21:50
Mostly cloudy
Mostly cloudy
 Wind from SE
Wind: SE 10 mph , 17 km/h
Temperature: 11°C
Dew Point: 8°C
Humidity: 82%
Barometer: 1008 hPa
Clouds: Mostly cloudy
Visibility: 6 miles , 10 km
Cloud details: Partly cloudy 457 m
Partly cloudy 975 m
Mostly cloudy 1463 m
2017/10/18 20:50 EGQL 182050Z 13009KT 9999 SCT015 SCT032 BKN048 11/08 Q1008 WHT
EGPK - Prestwick(Civ/Na, United Kingdom
Distance from station: W 55mi, 89km
Updated: 18/10/2017 22:50
Few Clouds
Few Clouds
 Wind from SE
Wind: SE 5 mph , 7 km/h
Temperature: 12°C
Dew Point: 8°C
Humidity: 77%
Barometer: 1007 hPa
Clouds: Few Clouds
Visibility: 6 miles , 10 km
Cloud details: Few Clouds 762 m
2017/10/18 21:50 EGPK 182150Z 13004KT 9999 FEW025 12/08 Q1007
 
EGPN - Dundee/Riverside, United Kingdom
Distance from station: N 56mi, 90km
Updated: 18/10/2017 21:20
NOT Current
Partly cloudy
Partly cloudy
 Wind from E
Wind: E 7 mph , 11 km/h
Temperature: 11°C
Dew Point: 8°C
Humidity: 82%
Barometer: 1010 hPa
Clouds: Partly cloudy
Visibility: 6 miles , 10 km
Cloud details: Few Clouds 610 m
Partly cloudy 853 m
2017/10/18 20:20 EGPN 182020Z 10006KT 9999 FEW020 SCT028 11/08 Q1010
EGNT - Newcastle, United Kingdom
Distance from station: SE 72mi, 116km
Updated: 18/10/2017 22:50
Mostly cloudy
Mostly cloudy
 Wind from SE
Wind: SE 5 mph , 7 km/h
Temperature: 11°C
Dew Point: 9°C
Humidity: 88%
Barometer: 1009 hPa
Clouds: Mostly cloudy
Visibility: 6 miles , 10 km
Cloud details: Mostly cloudy 762 m
2017/10/18 21:50 EGNT 182150Z 14004KT 110V180 9999 BKN025 11/09 Q1009
 
EGNV - Tees-Side, United Kingdom
Distance from station: SE 104mi, 168km
Updated: 18/10/2017 21:50
Mostly cloudy
Mostly cloudy
 Wind from SE
Wind: SE 6 mph , 9 km/h
Temperature: 12°C
Dew Point: 9°C
Humidity: 82%
Barometer: 1010 hPa
Clouds: Mostly cloudy
Visibility: 6 miles , 10 km
Cloud details: Mostly cloudy 823 m
2017/10/18 20:50 EGNV 182050Z 13005KT 9999 BKN027 12/09 Q1010
EGPD - Aberdeen/Dyce, United Kingdom
Distance from station: NNE 114mi, 183km
Updated: 18/10/2017 22:50
Partly cloudy
Partly cloudy
 Wind from S
Wind: S 3 mph , 6 km/h
Temperature: 6°C
Dew Point: 6°C
Humidity: 100%
Barometer: 1010 hPa
Clouds: Partly cloudy
Visibility: 6 miles , 10 km
Cloud details: Partly cloudy 701 m
2017/10/18 21:50 EGPD 182150Z AUTO 17003KT 9999 SCT023 06/06 Q1010
 
EGNS - Isle Of Man/Rona, United Kingdom
Distance from station: SSW 122mi, 197km
Updated: 18/10/2017 22:50
Overcast
Overcast
 Wind from SE
Wind: SE 15 mph , 24 km/h
Temperature: 13°C
Dew Point: 12°C
Humidity: 94%
Barometer: 1006 hPa
Clouds: Overcast
Visibility: 6 miles , 10 km
Cloud details: Few Clouds 366 m
Overcast 1036 m
2017/10/18 21:50 EGNS 182150Z 14013KT 9999 FEW012 OVC034 13/12 Q1006
EGAC - Belfast Harbour, United Kingdom
Distance from station: WSW 128mi, 206km
Updated: 18/10/2017 21:20
NOT Current
Mostly cloudy
Mostly cloudy
 Wind from SE
Wind: SE 10 mph , 17 km/h
Temperature: 13°C
Dew Point: 11°C
Humidity: 88%
Barometer: 1005 hPa
Clouds: Mostly cloudy
Visibility: 6 miles , 10 km
Cloud details: Few Clouds 396 m
Mostly cloudy 579 m
2017/10/18 20:20 EGAC 182020Z 14009KT 110V170 9999 FEW013 BKN019 13/11 Q1005
 
EGPE - Inverness/Dalcro, United Kingdom
Distance from station: NNW 134mi, 215km
Updated: 18/10/2017 22:50
Clear
Clear
 Wind from ESE
Wind: ESE 8 mph , 13 km/h
Temperature: 8°C
Wind Chill: 6°C
Dew Point: 5°C
Humidity: 82%
Barometer: 1008 hPa
Clouds: Clear
Visibility: 6 miles , 10 km
2017/10/18 21:50 EGPE 182150Z AUTO 12007KT 9999 NCD 08/05 Q1008
XHTML 1.1 | CSS